sensor_id;sensor_type;location;lat;lon;timestamp;temperature;humidity
3298;DHT22;1661;53.572;10.174;2022-09-12T00:01:50;14.90;80.90
3298;DHT22;1661;53.572;10.174;2022-09-12T00:04:18;14.90;81.00
3298;DHT22;1661;53.572;10.174;2022-09-12T00:06:45;14.90;81.00
3298;DHT22;1661;53.572;10.174;2022-09-12T00:09:13;14.80;80.90
3298;DHT22;1661;53.572;10.174;2022-09-12T00:11:42;14.80;80.70
3298;DHT22;1661;53.572;10.174;2022-09-12T00:14:10;14.80;80.90
3298;DHT22;1661;53.572;10.174;2022-09-12T00:16:38;14.80;80.80
3298;DHT22;1661;53.572;10.174;2022-09-12T00:19:05;14.80;81.10
3298;DHT22;1661;53.572;10.174;2022-09-12T00:21:35;14.70;81.40
3298;DHT22;1661;53.572;10.174;2022-09-12T00:24:03;14.70;81.30
3298;DHT22;1661;53.572;10.174;2022-09-12T00:26:30;14.70;81.40
3298;DHT22;1661;53.572;10.174;2022-09-12T00:28:57;14.60;81.40
3298;DHT22;1661;53.572;10.174;2022-09-12T00:31:25;14.60;81.40
3298;DHT22;1661;53.572;10.174;2022-09-12T00:33:54;14.60;81.50
3298;DHT22;1661;53.572;10.174;2022-09-12T00:36:22;14.60;81.40
3298;DHT22;1661;53.572;10.174;2022-09-12T00:38:50;14.60;81.20
3298;DHT22;1661;53.572;10.174;2022-09-12T00:41:19;14.50;81.30
3298;DHT22;1661;53.572;10.174;2022-09-12T00:43:49;14.50;81.20
3298;DHT22;1661;53.572;10.174;2022-09-12T00:46:24;14.50;81.10
3298;DHT22;1661;53.572;10.174;2022-09-12T00:48:55;14.50;81.10
3298;DHT22;1661;53.572;10.174;2022-09-12T00:51:24;14.50;81.00
3298;DHT22;1661;53.572;10.174;2022-09-12T00:53:53;14.40;81.40
3298;DHT22;1661;53.572;10.174;2022-09-12T00:56:21;14.40;81.50
3298;DHT22;1661;53.572;10.174;2022-09-12T00:58:51;14.40;81.20
3298;DHT22;1661;53.572;10.174;2022-09-12T01:01:19;14.40;81.50
3298;DHT22;1661;53.572;10.174;2022-09-12T01:03:46;14.30;81.30
3298;DHT22;1661;53.572;10.174;2022-09-12T01:06:17;14.30;81.20
3298;DHT22;1661;53.572;10.174;2022-09-12T01:08:46;14.30;81.30
3298;DHT22;1661;53.572;10.174;2022-09-12T01:11:15;14.30;81.60
3298;DHT22;1661;53.572;10.174;2022-09-12T01:13:42;14.30;81.70
3298;DHT22;1661;53.572;10.174;2022-09-12T01:16:09;14.20;82.00
3298;DHT22;1661;53.572;10.174;2022-09-12T01:18:47;14.20;82.60
3298;DHT22;1661;53.572;10.174;2022-09-12T01:21:24;14.20;82.70
3298;DHT22;1661;53.572;10.174;2022-09-12T01:24:33;14.10;82.40
3298;DHT22;1661;53.572;10.174;2022-09-12T01:30:19;14.10;82.10
3298;DHT22;1661;53.572;10.174;2022-09-12T01:32:59;14.00;82.10
3298;DHT22;1661;53.572;10.174;2022-09-12T01:35:33;14.00;82.10
3298;DHT22;1661;53.572;10.174;2022-09-12T01:38:09;14.00;81.90
3298;DHT22;1661;53.572;10.174;2022-09-12T01:40:44;14.00;82.00
3298;DHT22;1661;53.572;10.174;2022-09-12T01:43:17;14.00;82.10
3298;DHT22;1661;53.572;10.174;2022-09-12T01:45:50;13.90;82.30
3298;DHT22;1661;53.572;10.174;2022-09-12T01:48:21;13.90;82.40
3298;DHT22;1661;53.572;10.174;2022-09-12T01:50:51;13.90;82.50
3298;DHT22;1661;53.572;10.174;2022-09-12T01:53:22;13.90;82.50
3298;DHT22;1661;53.572;10.174;2022-09-12T01:55:54;13.90;82.30
3298;DHT22;1661;53.572;10.174;2022-09-12T01:58:25;13.90;82.30
3298;DHT22;1661;53.572;10.174;2022-09-12T02:00:59;13.90;82.10
3298;DHT22;1661;53.572;10.174;2022-09-12T02:03:29;13.80;81.90
3298;DHT22;1661;53.572;10.174;2022-09-12T02:06:02;13.80;81.90
3298;DHT22;1661;53.572;10.174;2022-09-12T02:08:34;13.80;81.90
3298;DHT22;1661;53.572;10.174;2022-09-12T02:11:06;13.80;81.70
3298;DHT22;1661;53.572;10.174;2022-09-12T02:13:37;13.80;81.50
3298;DHT22;1661;53.572;10.174;2022-09-12T02:16:08;13.80;81.60
3298;DHT22;1661;53.572;10.174;2022-09-12T02:18:38;13.80;82.00
3298;DHT22;1661;53.572;10.174;2022-09-12T02:21:06;13.80;82.40
3298;DHT22;1661;53.572;10.174;2022-09-12T02:23:37;13.80;82.50
3298;DHT22;1661;53.572;10.174;2022-09-12T02:26:09;13.70;82.00
3298;DHT22;1661;53.572;10.174;2022-09-12T02:28:41;13.70;81.80
3298;DHT22;1661;53.572;10.174;2022-09-12T02:31:13;13.70;81.90
3298;DHT22;1661;53.572;10.174;2022-09-12T02:33:47;13.70;81.70
3298;DHT22;1661;53.572;10.174;2022-09-12T02:36:24;13.70;81.70
3298;DHT22;1661;53.572;10.174;2022-09-12T02:38:54;13.70;81.80
3298;DHT22;1661;53.572;10.174;2022-09-12T02:41:21;13.70;81.80
3298;DHT22;1661;53.572;10.174;2022-09-12T02:43:49;13.60;82.20
3298;DHT22;1661;53.572;10.174;2022-09-12T02:46:21;13.60;82.10
3298;DHT22;1661;53.572;10.174;2022-09-12T02:48:48;13.60;81.80
3298;DHT22;1661;53.572;10.174;2022-09-12T02:51:16;13.60;81.60
3298;DHT22;1661;53.572;10.174;2022-09-12T02:53:43;13.60;81.80
3298;DHT22;1661;53.572;10.174;2022-09-12T02:56:13;13.60;81.40
3298;DHT22;1661;53.572;10.174;2022-09-12T02:58:42;13.50;81.60
3298;DHT22;1661;53.572;10.174;2022-09-12T03:01:14;13.50;81.90
3298;DHT22;1661;53.572;10.174;2022-09-12T03:03:59;13.50;81.60
3298;DHT22;1661;53.572;10.174;2022-09-12T03:06:34;13.50;81.60
3298;DHT22;1661;53.572;10.174;2022-09-12T03:09:10;13.50;81.80
3298;DHT22;1661;53.572;10.174;2022-09-12T03:12:00;13.50;81.50
3298;DHT22;1661;53.572;10.174;2022-09-12T03:14:43;13.50;81.80
3298;DHT22;1661;53.572;10.174;2022-09-12T03:17:20;13.50;82.00
3298;DHT22;1661;53.572;10.174;2022-09-12T03:19:57;13.50;81.80
3298;DHT22;1661;53.572;10.174;2022-09-12T03:22:30;13.40;81.70
3298;DHT22;1661;53.572;10.174;2022-09-12T03:25:04;13.40;81.70
3298;DHT22;1661;53.572;10.174;2022-09-12T03:27:37;13.40;81.70
3298;DHT22;1661;53.572;10.174;2022-09-12T03:30:07;13.40;81.70
3298;DHT22;1661;53.572;10.174;2022-09-12T03:32:43;13.40;81.60
3298;DHT22;1661;53.572;10.174;2022-09-12T03:35:12;13.40;81.60
3298;DHT22;1661;53.572;10.174;2022-09-12T03:37:40;13.40;81.60
3298;DHT22;1661;53.572;10.174;2022-09-12T03:40:08;13.30;81.70
3298;DHT22;1661;53.572;10.174;2022-09-12T03:42:36;13.40;81.80
3298;DHT22;1661;53.572;10.174;2022-09-12T03:45:04;13.30;81.70
3298;DHT22;1661;53.572;10.174;2022-09-12T03:47:31;13.30;81.50
3298;DHT22;1661;53.572;10.174;2022-09-12T03:49:58;13.30;81.70
3298;DHT22;1661;53.572;10.174;2022-09-12T03:52:26;13.30;81.50
3298;DHT22;1661;53.572;10.174;2022-09-12T03:54:53;13.30;81.60
3298;DHT22;1661;53.572;10.174;2022-09-12T03:57:19;13.30;81.70
3298;DHT22;1661;53.572;10.174;2022-09-12T03:59:47;13.20;81.70
3298;DHT22;1661;53.572;10.174;2022-09-12T04:02:14;13.20;81.60
3298;DHT22;1661;53.572;10.174;2022-09-12T04:04:42;13.20;81.70
3298;DHT22;1661;53.572;10.174;2022-09-12T04:07:09;13.20;81.70
3298;DHT22;1661;53.572;10.174;2022-09-12T04:09:37;13.10;81.80
3298;DHT22;1661;53.572;10.174;2022-09-12T04:12:05;13.10;81.60
3298;DHT22;1661;53.572;10.174;2022-09-12T04:14:32;13.10;81.60
3298;DHT22;1661;53.572;10.174;2022-09-12T04:16:59;13.10;81.60
3298;DHT22;1661;53.572;10.174;2022-09-12T04:19:26;13.10;81.70
3298;DHT22;1661;53.572;10.174;2022-09-12T04:21:53;13.10;81.40
3298;DHT22;1661;53.572;10.174;2022-09-12T04:24:20;13.10;81.50
3298;DHT22;1661;53.572;10.174;2022-09-12T04:26:48;13.00;81.50
3298;DHT22;1661;53.572;10.174;2022-09-12T04:29:14;13.00;81.70
3298;DHT22;1661;53.572;10.174;2022-09-12T04:31:42;13.00;81.40
3298;DHT22;1661;53.572;10.174;2022-09-12T04:34:09;13.00;81.60
3298;DHT22;1661;53.572;10.174;2022-09-12T04:36:36;13.00;81.40
3298;DHT22;1661;53.572;10.174;2022-09-12T04:39:03;13.00;81.50
3298;DHT22;1661;53.572;10.174;2022-09-12T04:41:34;13.00;81.60
3298;DHT22;1661;53.572;10.174;2022-09-12T04:44:04;13.00;81.60
3298;DHT22;1661;53.572;10.174;2022-09-12T04:46:35;13.00;81.70
3298;DHT22;1661;53.572;10.174;2022-09-12T04:49:03;13.00;81.80
3298;DHT22;1661;53.572;10.174;2022-09-12T04:51:32;12.90;81.80
3298;DHT22;1661;53.572;10.174;2022-09-12T04:54:02;12.90;81.70
3298;DHT22;1661;53.572;10.174;2022-09-12T04:56:30;12.90;81.50
3298;DHT22;1661;53.572;10.174;2022-09-12T04:58:59;12.90;81.40
3298;DHT22;1661;53.572;10.174;2022-09-12T05:01:28;12.90;81.50
3298;DHT22;1661;53.572;10.174;2022-09-12T05:03:56;12.90;81.50
3298;DHT22;1661;53.572;10.174;2022-09-12T05:06:26;12.90;81.50
3298;DHT22;1661;53.572;10.174;2022-09-12T05:08:54;12.90;81.70
3298;DHT22;1661;53.572;10.174;2022-09-12T05:11:24;12.90;81.60
3298;DHT22;1661;53.572;10.174;2022-09-12T05:13:52;12.90;81.80
3298;DHT22;1661;53.572;10.174;2022-09-12T05:16:19;12.90;81.90
3298;DHT22;1661;53.572;10.174;2022-09-12T05:18:48;12.90;81.70
3298;DHT22;1661;53.572;10.174;2022-09-12T05:21:17;12.90;81.60
3298;DHT22;1661;53.572;10.174;2022-09-12T05:23:45;12.90;81.70
3298;DHT22;1661;53.572;10.174;2022-09-12T05:26:14;12.90;81.90
3298;DHT22;1661;53.572;10.174;2022-09-12T05:28:41;12.90;81.90
3298;DHT22;1661;53.572;10.174;2022-09-12T05:31:10;12.90;82.20
3298;DHT22;1661;53.572;10.174;2022-09-12T05:33:39;12.90;82.20
3298;DHT22;1661;53.572;10.174;2022-09-12T05:36:10;13.00;82.30
3298;DHT22;1661;53.572;10.174;2022-09-12T05:38:37;13.00;82.20
3298;DHT22;1661;53.572;10.174;2022-09-12T05:41:05;13.00;82.20
3298;DHT22;1661;53.572;10.174;2022-09-12T05:43:32;13.10;82.10
3298;DHT22;1661;53.572;10.174;2022-09-12T05:46:00;13.10;82.40
3298;DHT22;1661;53.572;10.174;2022-09-12T05:48:27;13.20;82.60
3298;DHT22;1661;53.572;10.174;2022-09-12T05:50:59;13.30;82.80
3298;DHT22;1661;53.572;10.174;2022-09-12T05:53:27;13.40;82.80
3298;DHT22;1661;53.572;10.174;2022-09-12T05:56:05;13.50;82.90
3298;DHT22;1661;53.572;10.174;2022-09-12T05:58:32;13.60;82.90
3298;DHT22;1661;53.572;10.174;2022-09-12T06:01:04;13.70;83.10
3298;DHT22;1661;53.572;10.174;2022-09-12T06:03:32;13.80;83.00
3298;DHT22;1661;53.572;10.174;2022-09-12T06:06:01;13.90;83.50
3298;DHT22;1661;53.572;10.174;2022-09-12T06:08:30;14.00;83.60
3298;DHT22;1661;53.572;10.174;2022-09-12T06:11:01;14.10;83.60
3298;DHT22;1661;53.572;10.174;2022-09-12T06:13:30;14.20;84.00
3298;DHT22;1661;53.572;10.174;2022-09-12T06:16:02;14.20;84.50
3298;DHT22;1661;53.572;10.174;2022-09-12T06:18:29;14.30;85.30
3298;DHT22;1661;53.572;10.174;2022-09-12T06:20:56;14.40;85.80
3298;DHT22;1661;53.572;10.174;2022-09-12T06:23:23;14.50;85.70
3298;DHT22;1661;53.572;10.174;2022-09-12T06:25:52;14.60;85.30
3298;DHT22;1661;53.572;10.174;2022-09-12T06:28:19;14.70;85.70
3298;DHT22;1661;53.572;10.174;2022-09-12T06:30:46;14.80;86.10
3298;DHT22;1661;53.572;10.174;2022-09-12T06:33:13;14.90;86.10
3298;DHT22;1661;53.572;10.174;2022-09-12T06:35:40;15.00;86.50
3298;DHT22;1661;53.572;10.174;2022-09-12T06:38:07;15.10;86.50
3298;DHT22;1661;53.572;10.174;2022-09-12T06:40:34;15.10;87.10
3298;DHT22;1661;53.572;10.174;2022-09-12T06:43:02;15.30;87.60
3298;DHT22;1661;53.572;10.174;2022-09-12T06:45:30;15.30;87.50
3298;DHT22;1661;53.572;10.174;2022-09-12T06:47:57;15.50;87.40
3298;DHT22;1661;53.572;10.174;2022-09-12T06:50:23;15.60;87.20
3298;DHT22;1661;53.572;10.174;2022-09-12T06:52:50;15.70;87.30
3298;DHT22;1661;53.572;10.174;2022-09-12T06:55:17;15.80;87.20
3298;DHT22;1661;53.572;10.174;2022-09-12T06:57:43;16.00;86.80
3298;DHT22;1661;53.572;10.174;2022-09-12T07:00:13;16.10;86.60
3298;DHT22;1661;53.572;10.174;2022-09-12T07:02:39;16.30;86.60
3298;DHT22;1661;53.572;10.174;2022-09-12T07:05:07;16.50;86.20
3298;DHT22;1661;53.572;10.174;2022-09-12T07:07:35;16.60;85.80
3298;DHT22;1661;53.572;10.174;2022-09-12T07:10:01;16.70;85.30
3298;DHT22;1661;53.572;10.174;2022-09-12T07:12:28;16.90;84.70
3298;DHT22;1661;53.572;10.174;2022-09-12T07:14:55;17.00;84.40
3298;DHT22;1661;53.572;10.174;2022-09-12T07:17:23;17.10;84.50
3298;DHT22;1661;53.572;10.174;2022-09-12T07:19:50;17.30;84.20
3298;DHT22;1661;53.572;10.174;2022-09-12T07:22:16;17.40;84.00
3298;DHT22;1661;53.572;10.174;2022-09-12T07:24:43;17.60;83.80
3298;DHT22;1661;53.572;10.174;2022-09-12T07:27:10;17.70;83.40
3298;DHT22;1661;53.572;10.174;2022-09-12T07:29:37;17.90;83.00
3298;DHT22;1661;53.572;10.174;2022-09-12T07:32:04;18.00;82.60
3298;DHT22;1661;53.572;10.174;2022-09-12T07:34:32;18.20;82.70
3298;DHT22;1661;53.572;10.174;2022-09-12T07:36:59;18.40;82.30
3298;DHT22;1661;53.572;10.174;2022-09-12T07:39:26;18.50;81.30
3298;DHT22;1661;53.572;10.174;2022-09-12T07:41:53;18.60;81.20
3298;DHT22;1661;53.572;10.174;2022-09-12T07:44:19;18.70;80.60
3298;DHT22;1661;53.572;10.174;2022-09-12T07:46:48;18.80;79.60
3298;DHT22;1661;53.572;10.174;2022-09-12T07:49:15;18.90;79.90
3298;DHT22;1661;53.572;10.174;2022-09-12T07:51:43;19.00;79.20
3298;DHT22;1661;53.572;10.174;2022-09-12T07:54:10;19.10;79.50
3298;DHT22;1661;53.572;10.174;2022-09-12T07:56:37;19.30;79.20
3298;DHT22;1661;53.572;10.174;2022-09-12T07:59:03;19.40;78.90
3298;DHT22;1661;53.572;10.174;2022-09-12T08:01:31;19.60;78.00
3298;DHT22;1661;53.572;10.174;2022-09-12T08:03:59;19.70;77.00
3298;DHT22;1661;53.572;10.174;2022-09-12T08:06:27;19.80;76.80
3298;DHT22;1661;53.572;10.174;2022-09-12T08:08:57;19.80;76.40
3298;DHT22;1661;53.572;10.174;2022-09-12T08:11:25;20.00;76.20
3298;DHT22;1661;53.572;10.174;2022-09-12T08:13:54;20.10;75.90
3298;DHT22;1661;53.572;10.174;2022-09-12T08:16:23;20.30;74.60
3298;DHT22;1661;53.572;10.174;2022-09-12T08:18:50;20.30;73.90
3298;DHT22;1661;53.572;10.174;2022-09-12T08:21:18;20.40;73.80
3298;DHT22;1661;53.572;10.174;2022-09-12T08:23:45;20.40;73.40
3298;DHT22;1661;53.572;10.174;2022-09-12T08:26:14;20.60;72.90
3298;DHT22;1661;53.572;10.174;2022-09-12T08:28:43;20.70;72.40
3298;DHT22;1661;53.572;10.174;2022-09-12T08:31:12;20.80;72.20
3298;DHT22;1661;53.572;10.174;2022-09-12T08:33:39;21.00;72.20
3298;DHT22;1661;53.572;10.174;2022-09-12T08:36:08;21.20;70.70
3298;DHT22;1661;53.572;10.174;2022-09-12T08:38:37;21.30;70.00
3298;DHT22;1661;53.572;10.174;2022-09-12T08:41:08;21.50;69.90
3298;DHT22;1661;53.572;10.174;2022-09-12T08:43:51;21.70;69.50
3298;DHT22;1661;53.572;10.174;2022-09-12T08:46:21;21.90;67.80
3298;DHT22;1661;53.572;10.174;2022-09-12T08:48:49;21.90;66.90
3298;DHT22;1661;53.572;10.174;2022-09-12T08:51:18;21.90;67.40
3298;DHT22;1661;53.572;10.174;2022-09-12T08:53:46;22.00;67.70
3298;DHT22;1661;53.572;10.174;2022-09-12T08:56:15;22.10;67.40
3298;DHT22;1661;53.572;10.174;2022-09-12T08:58:44;22.20;67.00
3298;DHT22;1661;53.572;10.174;2022-09-12T09:01:16;22.20;66.90
3298;DHT22;1661;53.572;10.174;2022-09-12T09:04:07;22.20;66.40
3298;DHT22;1661;53.572;10.174;2022-09-12T09:06:51;22.30;66.30
3298;DHT22;1661;53.572;10.174;2022-09-12T09:09:28;22.40;66.30
3298;DHT22;1661;53.572;10.174;2022-09-12T09:12:06;22.50;65.80
3298;DHT22;1661;53.572;10.174;2022-09-12T09:14:48;22.60;66.50
3298;DHT22;1661;53.572;10.174;2022-09-12T09:17:24;22.70;65.70
3298;DHT22;1661;53.572;10.174;2022-09-12T09:19:58;22.80;65.20
3298;DHT22;1661;53.572;10.174;2022-09-12T09:22:36;22.90;64.50
3298;DHT22;1661;53.572;10.174;2022-09-12T09:25:07;22.90;65.00
3298;DHT22;1661;53.572;10.174;2022-09-12T09:27:42;23.00;64.30
3298;DHT22;1661;53.572;10.174;2022-09-12T09:30:17;23.00;63.50
3298;DHT22;1661;53.572;10.174;2022-09-12T09:32:47;23.10;63.80
3298;DHT22;1661;53.572;10.174;2022-09-12T09:35:17;23.20;62.80
3298;DHT22;1661;53.572;10.174;2022-09-12T09:37:58;23.30;62.00
3298;DHT22;1661;53.572;10.174;2022-09-12T09:40:32;23.50;62.60
3298;DHT22;1661;53.572;10.174;2022-09-12T09:43:02;23.60;62.60
3298;DHT22;1661;53.572;10.174;2022-09-12T09:45:33;23.70;61.00
3298;DHT22;1661;53.572;10.174;2022-09-12T09:48:06;23.70;61.20
3298;DHT22;1661;53.572;10.174;2022-09-12T09:50:38;23.80;61.60
3298;DHT22;1661;53.572;10.174;2022-09-12T09:53:08;24.10;61.50
3298;DHT22;1661;53.572;10.174;2022-09-12T09:55:40;24.20;60.40
3298;DHT22;1661;53.572;10.174;2022-09-12T09:58:08;24.30;58.90
3298;DHT22;1661;53.572;10.174;2022-09-12T10:00:37;24.30;59.60
3298;DHT22;1661;53.572;10.174;2022-09-12T10:03:20;24.40;59.30
3298;DHT22;1661;53.572;10.174;2022-09-12T10:05:51;24.50;59.60
3298;DHT22;1661;53.572;10.174;2022-09-12T10:08:20;24.50;58.80
3298;DHT22;1661;53.572;10.174;2022-09-12T10:10:58;24.50;58.90
3298;DHT22;1661;53.572;10.174;2022-09-12T10:13:40;24.50;58.80
3298;DHT22;1661;53.572;10.174;2022-09-12T10:16:18;24.40;58.90
3298;DHT22;1661;53.572;10.174;2022-09-12T10:18:47;24.40;59.20
3298;DHT22;1661;53.572;10.174;2022-09-12T10:21:30;24.50;59.80
3298;DHT22;1661;53.572;10.174;2022-09-12T10:24:01;24.70;60.60
3298;DHT22;1661;53.572;10.174;2022-09-12T10:26:37;24.80;60.30
3298;DHT22;1661;53.572;10.174;2022-09-12T10:29:16;24.90;58.30
3298;DHT22;1661;53.572;10.174;2022-09-12T10:31:48;24.70;59.00
3298;DHT22;1661;53.572;10.174;2022-09-12T10:34:21;24.80;58.50
3298;DHT22;1661;53.572;10.174;2022-09-12T10:36:52;24.90;59.30
3298;DHT22;1661;53.572;10.174;2022-09-12T10:39:20;25.10;59.70
3298;DHT22;1661;53.572;10.174;2022-09-12T10:41:47;25.20;58.30
3298;DHT22;1661;53.572;10.174;2022-09-12T10:44:15;25.20;55.90
3298;DHT22;1661;53.572;10.174;2022-09-12T10:46:42;25.30;56.30
3298;DHT22;1661;53.572;10.174;2022-09-12T10:49:25;25.40;56.70
3298;DHT22;1661;53.572;10.174;2022-09-12T10:51:54;25.30;54.90
3298;DHT22;1661;53.572;10.174;2022-09-12T10:54:24;25.30;54.40
3298;DHT22;1661;53.572;10.174;2022-09-12T10:57:04;25.30;55.90
3298;DHT22;1661;53.572;10.174;2022-09-12T10:59:46;25.40;55.30
3298;DHT22;1661;53.572;10.174;2022-09-12T11:02:26;25.40;55.60
3298;DHT22;1661;53.572;10.174;2022-09-12T11:05:01;25.30;55.50
3298;DHT22;1661;53.572;10.174;2022-09-12T11:07:38;25.30;56.20
3298;DHT22;1661;53.572;10.174;2022-09-12T11:10:32;25.20;56.30
3298;DHT22;1661;53.572;10.174;2022-09-12T11:13:11;25.20;56.70
3298;DHT22;1661;53.572;10.174;2022-09-12T11:15:57;25.30;57.30
3298;DHT22;1661;53.572;10.174;2022-09-12T11:18:41;25.20;55.90
3298;DHT22;1661;53.572;10.174;2022-09-12T11:21:38;25.30;55.70
3298;DHT22;1661;53.572;10.174;2022-09-12T11:24:33;25.20;56.30
3298;DHT22;1661;53.572;10.174;2022-09-12T11:27:20;25.30;56.30
3298;DHT22;1661;53.572;10.174;2022-09-12T11:29:56;25.40;55.40
3298;DHT22;1661;53.572;10.174;2022-09-12T11:32:54;25.50;55.50
3298;DHT22;1661;53.572;10.174;2022-09-12T11:35:26;25.50;55.50
3298;DHT22;1661;53.572;10.174;2022-09-12T11:38:10;25.60;55.50
3298;DHT22;1661;53.572;10.174;2022-09-12T11:40:43;25.60;55.10
3298;DHT22;1661;53.572;10.174;2022-09-12T11:43:22;25.60;55.60
3298;DHT22;1661;53.572;10.174;2022-09-12T11:45:51;25.60;54.80
3298;DHT22;1661;53.572;10.174;2022-09-12T11:48:28;25.60;54.40
3298;DHT22;1661;53.572;10.174;2022-09-12T11:50:59;25.60;54.70
3298;DHT22;1661;53.572;10.174;2022-09-12T11:53:32;25.50;54.80
3298;DHT22;1661;53.572;10.174;2022-09-12T11:56:04;25.60;55.80
3298;DHT22;1661;53.572;10.174;2022-09-12T11:58:34;25.80;56.00
3298;DHT22;1661;53.572;10.174;2022-09-12T12:01:10;25.70;54.60
3298;DHT22;1661;53.572;10.174;2022-09-12T12:03:40;25.60;54.70
3298;DHT22;1661;53.572;10.174;2022-09-12T12:06:11;25.60;54.90
3298;DHT22;1661;53.572;10.174;2022-09-12T12:08:43;25.50;54.90
3298;DHT22;1661;53.572;10.174;2022-09-12T12:11:12;25.60;55.80
3298;DHT22;1661;53.572;10.174;2022-09-12T12:13:44;25.70;55.50
3298;DHT22;1661;53.572;10.174;2022-09-12T12:16:14;25.80;55.50
3298;DHT22;1661;53.572;10.174;2022-09-12T12:18:43;25.90;55.80
3298;DHT22;1661;53.572;10.174;2022-09-12T12:21:35;25.90;55.00
3298;DHT22;1661;53.572;10.174;2022-09-12T12:24:16;25.90;55.50
3298;DHT22;1661;53.572;10.174;2022-09-12T12:26:58;25.90;54.80
3298;DHT22;1661;53.572;10.174;2022-09-12T12:29:37;26.00;54.80
3298;DHT22;1661;53.572;10.174;2022-09-12T12:32:24;26.10;54.50
3298;DHT22;1661;53.572;10.174;2022-09-12T12:35:10;26.30;55.10
3298;DHT22;1661;53.572;10.174;2022-09-12T12:37:51;26.30;53.90
3298;DHT22;1661;53.572;10.174;2022-09-12T12:40:24;26.30;53.70
3298;DHT22;1661;53.572;10.174;2022-09-12T12:43:26;26.30;53.80
3298;DHT22;1661;53.572;10.174;2022-09-12T12:46:05;26.30;53.80
3298;DHT22;1661;53.572;10.174;2022-09-12T12:48:45;26.40;54.50
3298;DHT22;1661;53.572;10.174;2022-09-12T12:51:35;26.50;53.60
3298;DHT22;1661;53.572;10.174;2022-09-12T12:54:06;26.50;52.40
3298;DHT22;1661;53.572;10.174;2022-09-12T12:57:00;26.40;53.00
3298;DHT22;1661;53.572;10.174;2022-09-12T12:59:28;26.30;53.80
3298;DHT22;1661;53.572;10.174;2022-09-12T13:01:56;26.30;53.40
3298;DHT22;1661;53.572;10.174;2022-09-12T13:04:27;26.30;54.10
3298;DHT22;1661;53.572;10.174;2022-09-12T13:06:57;26.30;54.10
3298;DHT22;1661;53.572;10.174;2022-09-12T13:09:29;26.20;54.30
3298;DHT22;1661;53.572;10.174;2022-09-12T13:12:02;26.10;54.30
3298;DHT22;1661;53.572;10.174;2022-09-12T13:17:23;25.90;54.60
3298;DHT22;1661;53.572;10.174;2022-09-12T13:19:53;25.80;53.90
3298;DHT22;1661;53.572;10.174;2022-09-12T13:22:22;25.80;55.10
3298;DHT22;1661;53.572;10.174;2022-09-12T13:24:49;25.80;54.30
3298;DHT22;1661;53.572;10.174;2022-09-12T13:27:20;25.80;53.60
3298;DHT22;1661;53.572;10.174;2022-09-12T13:29:48;25.80;53.80
3298;DHT22;1661;53.572;10.174;2022-09-12T13:32:15;25.80;55.20
3298;DHT22;1661;53.572;10.174;2022-09-12T13:34:57;25.80;55.80
3298;DHT22;1661;53.572;10.174;2022-09-12T13:37:39;25.90;55.30
3298;DHT22;1661;53.572;10.174;2022-09-12T13:40:21;25.90;54.50
3298;DHT22;1661;53.572;10.174;2022-09-12T13:43:12;25.80;53.70
3298;DHT22;1661;53.572;10.174;2022-09-12T13:45:42;25.80;55.00
3298;DHT22;1661;53.572;10.174;2022-09-12T13:48:15;25.70;54.80
3298;DHT22;1661;53.572;10.174;2022-09-12T13:50:50;25.80;55.30
3298;DHT22;1661;53.572;10.174;2022-09-12T13:53:18;25.80;55.70
3298;DHT22;1661;53.572;10.174;2022-09-12T13:55:47;25.90;55.10
3298;DHT22;1661;53.572;10.174;2022-09-12T13:58:19;26.00;55.70
3298;DHT22;1661;53.572;10.174;2022-09-12T14:00:59;26.00;55.60
3298;DHT22;1661;53.572;10.174;2022-09-12T14:03:29;26.10;55.30
3298;DHT22;1661;53.572;10.174;2022-09-12T14:06:14;26.10;55.10
3298;DHT22;1661;53.572;10.174;2022-09-12T14:08:43;26.00;54.90
3298;DHT22;1661;53.572;10.174;2022-09-12T14:11:11;25.90;54.20
3298;DHT22;1661;53.572;10.174;2022-09-12T14:13:43;25.90;54.20
3298;DHT22;1661;53.572;10.174;2022-09-12T14:16:10;25.80;55.10
3298;DHT22;1661;53.572;10.174;2022-09-12T14:18:37;25.80;55.60
3298;DHT22;1661;53.572;10.174;2022-09-12T14:21:08;25.70;55.50
3298;DHT22;1661;53.572;10.174;2022-09-12T14:23:39;25.60;55.10
3298;DHT22;1661;53.572;10.174;2022-09-12T14:26:09;25.60;55.00
3298;DHT22;1661;53.572;10.174;2022-09-12T14:28:38;25.50;55.10
3298;DHT22;1661;53.572;10.174;2022-09-12T14:31:21;25.50;56.20
3298;DHT22;1661;53.572;10.174;2022-09-12T14:33:50;25.60;56.00
3298;DHT22;1661;53.572;10.174;2022-09-12T14:36:21;25.60;55.80
3298;DHT22;1661;53.572;10.174;2022-09-12T14:38:49;25.70;56.60
3298;DHT22;1661;53.572;10.174;2022-09-12T14:41:22;25.90;55.70
3298;DHT22;1661;53.572;10.174;2022-09-12T14:43:52;26.10;55.70
3298;DHT22;1661;53.572;10.174;2022-09-12T14:46:25;26.20;54.30
3298;DHT22;1661;53.572;10.174;2022-09-12T14:48:55;26.40;53.90
3298;DHT22;1661;53.572;10.174;2022-09-12T14:51:26;26.40;53.50
3298;DHT22;1661;53.572;10.174;2022-09-12T14:53:53;26.50;54.40
3298;DHT22;1661;53.572;10.174;2022-09-12T14:56:21;26.50;53.00
3298;DHT22;1661;53.572;10.174;2022-09-12T14:58:48;26.40;52.80
3298;DHT22;1661;53.572;10.174;2022-09-12T15:01:24;26.30;52.70
3298;DHT22;1661;53.572;10.174;2022-09-12T15:03:53;26.30;53.30
3298;DHT22;1661;53.572;10.174;2022-09-12T15:06:23;26.30;52.70
3298;DHT22;1661;53.572;10.174;2022-09-12T15:08:51;26.20;54.00
3298;DHT22;1661;53.572;10.174;2022-09-12T15:11:18;26.20;53.10
3298;DHT22;1661;53.572;10.174;2022-09-12T15:13:45;26.10;52.70
3298;DHT22;1661;53.572;10.174;2022-09-12T15:16:12;26.00;54.30
3298;DHT22;1661;53.572;10.174;2022-09-12T15:18:41;26.00;53.70
3298;DHT22;1661;53.572;10.174;2022-09-12T15:21:11;25.90;53.30
3298;DHT22;1661;53.572;10.174;2022-09-12T15:23:41;25.80;53.80
3298;DHT22;1661;53.572;10.174;2022-09-12T15:26:11;25.60;54.30
3298;DHT22;1661;53.572;10.174;2022-09-12T15:28:39;25.50;53.90
3298;DHT22;1661;53.572;10.174;2022-09-12T15:31:09;25.40;55.00
3298;DHT22;1661;53.572;10.174;2022-09-12T15:33:37;25.20;54.90
3298;DHT22;1661;53.572;10.174;2022-09-12T15:36:13;25.00;55.20
3298;DHT22;1661;53.572;10.174;2022-09-12T15:38:40;24.90;56.10
3298;DHT22;1661;53.572;10.174;2022-09-12T15:41:10;24.90;56.40
3298;DHT22;1661;53.572;10.174;2022-09-12T15:43:37;24.90;57.00
3298;DHT22;1661;53.572;10.174;2022-09-12T15:46:05;24.90;56.40
3298;DHT22;1661;53.572;10.174;2022-09-12T15:48:31;24.80;55.60
3298;DHT22;1661;53.572;10.174;2022-09-12T15:50:58;24.90;56.90
3298;DHT22;1661;53.572;10.174;2022-09-12T15:53:27;25.10;57.10
3298;DHT22;1661;53.572;10.174;2022-09-12T15:55:54;25.10;55.40
3298;DHT22;1661;53.572;10.174;2022-09-12T15:58:20;25.20;55.50
3298;DHT22;1661;53.572;10.174;2022-09-12T16:00:47;25.20;55.40
3298;DHT22;1661;53.572;10.174;2022-09-12T16:03:20;25.30;56.10
3298;DHT22;1661;53.572;10.174;2022-09-12T16:05:47;25.20;55.10
3298;DHT22;1661;53.572;10.174;2022-09-12T16:08:13;25.10;55.30
3298;DHT22;1661;53.572;10.174;2022-09-12T16:10:42;25.00;56.20
3298;DHT22;1661;53.572;10.174;2022-09-12T16:13:09;24.90;55.60
3298;DHT22;1661;53.572;10.174;2022-09-12T16:15:36;24.80;56.60
3298;DHT22;1661;53.572;10.174;2022-09-12T16:18:03;24.70;56.20